Red Lodge, MT

3:00 AM MST on December 05, 2016 (GMT -0700)
Island at Rock Creek | | Change Station
Active Advisory: Winter Weather Advisory

Elev 5545 ft 45.19 °N, 109.24 °W | Updated 36 seconds ago

Light Snow
Light Snow Mist
20.3 °F
Feels Like 6 °F
N
17.1
Wind Variable Wind from NW

Today
High -- | Low -- °F
--% Chance of Precip.
Yesterday
High -- | Low -- °F
Precip. -- in
Pressure 29.68 in
Visibility 3.0 miles
Clouds Scattered Clouds 900 ft
Overcast 2000 ft
Windchill 6 °F
Dew Point 18 °F
Humidity 90%
Rainfall 0.00 in
Snow Depth Not available.
7:40 AM 4:34 PM
Waxing Crescent, 30% visible
METAR KCOD 050956Z AUTO 36005KT 3SM -SN BR SCT009 OVC020 M04/M06 A2959 RMK AO2 SLP051 P0000 T10441056 FZRANO
Pressure 29.68 in
Visibility 3.0 miles
Clouds Scattered Clouds 900 ft
Overcast 2000 ft
Windchill 6 °F
Dew Point 18 °F
Humidity 90%
Rainfall 0.00 in
Snow Depth Not available.
7:40 AM 4:34 PM
Waxing Crescent, 30% visible
METAR KCOD 050956Z AUTO 36005KT 3SM -SN BR SCT009 OVC020 M04/M06 A2959 RMK AO2 SLP051 P0000 T10441056 FZRANO

10-Day Weather Forecast

Almanac

Astronomy

Dec. 05, 2016 Rise Set
Actual Time
Civil Twilight
Nautical Twilight
Astronomical Twilight
Moon
Length of Visible Light
Length of Day
Tomorrow will be .
, % of the Moon is Illuminated

Today's Extremes

State Highs State Lows

Community

WunderPhotos

Upload Photos

1,955,775 photos uploaded!

WunderBlog® & News

Nearby

Air Quality

  Air Quality AQ Index Pollutant
Not available.

Snow Depth

Station Depth Elevation

Earthquake Activity

City Distance Mag. Time & Date
Minimum magnitude displayed is 2.5.

Coastal Water Temperatures

Place Temperature

Stations

Nearby Weather Stations

Station Location Temp. Windchill Dew Point Humidity Wind Precip. Elev Updated Type
                   

Watches & Warnings

Winter Weather Advisory
Issued: 3:28 PM MST Dec. 4, 2016 – National Weather Service

... Winter Weather Advisory remains in effect until 6 PM MST
Monday...

* impacts... rain transitioning to snow and rapidly falling
temperatures... will cause slick roads and poor travel conditions
tonight. Snow showers with local accumulation will continue
Monday.

* Timing... through Monday.

* Snow accumulation... 1 to 3 inches... except 3 to 5 inches along
the north facing foothills.

* Slick roads... temps falling into the teens and 20s will cause
icy roads.

Precautionary/preparedness actions...

A Winter Weather Advisory can be issued for a variety of winter
weather conditions such as light snow... blowing snow... sleet...
freezing rain... and extreme wind chills.